Flight Track Log - Related Links

Times and Time Zones

All times are in EDT time to prevent confusion due to time zone crossing. See the N569SC flight status page for this flight to view local times or setup timezone preferences in your user account.


Time Position Orientation Groundspeed Altitude Reporting Facility
EDT Latitude Longitude Course Direction KTS MPH feet Rate Location/Type
Wed 03:07:17 PM 35.2228 -80.9572 344° North 181 208 1,700  Level Atlanta Center
Wed 03:08:28 PM 35.2942 -80.9828 344° North 257 296 6,100 3,252 Climbing Atlanta Center
Wed 03:09:28 PM 35.3711 -80.9747 North 285 328 8,800 3,150 Climbing Atlanta Center
Wed 03:10:28 PM 35.4519 -80.9514 13° North 308 354 12,400 3,000 Climbing Atlanta Center
Wed 03:11:28 PM 35.5381 -80.9658 352° North 308 354 14,800 2,800 Climbing Atlanta Center
Wed 03:12:28 PM 35.6078 -81.0119 332° Northwest 318 366 18,000 2,950 Climbing Atlanta Center
Wed 03:13:28 PM 35.7014 -81.0775 330° Northwest 342 394 20,700 2,550 Climbing Atlanta Center
Wed 03:14:28 PM 35.7906 -81.1408 330° Northwest 357 411 23,100 2,450 Climbing Atlanta Center
Wed 03:15:28 PM 35.8794 -81.2067 329° Northwest 370 426 25,600 2,300 Climbing Atlanta Center
Wed 03:16:28 PM 35.9603 -81.2656 329° Northwest 370 426 27,700 1,900 Climbing Atlanta Center
Wed 03:17:28 PM 36.0492 -81.3292 330° Northwest 370 426 29,400 1,850 Climbing Atlanta Center
Wed 03:18:28 PM 36.1403 -81.3956 330° Northwest 370 426 31,400 2,000 Climbing Atlanta Center
Wed 03:19:28 PM 36.2314 -81.4622 329° Northwest 370 426 33,400 1,300 Climbing Atlanta Center
Wed 03:20:28 PM 36.3225 -81.5314 329° Northwest 370 426 34,000 595 Climbing Atlanta Center
Wed 03:21:29 PM 36.4219 -81.5928 334° Northwest 390 449 34,600 1,450 Climbing Atlanta Center
Wed 03:22:28 PM 36.5214 -81.6725 327° Northwest 396 456 36,900 2,269 Climbing Atlanta Center
Wed 03:23:28 PM 36.6103 -81.7397 329° Northwest 384 442 39,100 2,100 Climbing Atlanta Center
Wed 03:24:28 PM 36.6947 -81.8019 329° Northwest 364 419 41,100 1,292 Climbing Atlanta Center
Wed 03:26:57 PM 36.8950 -81.9561 328° Northwest 348 400 43,600 934 Climbing Indianapolis Center
Wed 03:28:00 PM 36.9706 -82.0367 320° Northwest 355 409 44,400 624 Climbing Indianapolis Center
Wed 03:29:02 PM 37.0475 -82.1153 321° Northwest 356 410 44,900 290 Climbing Indianapolis Center
Wed 03:30:04 PM 37.1375 -82.2083 321° Northwest 359 413 45,000 48 Climbing Indianapolis Center
Wed 03:31:06 PM 37.2186 -82.2911 321° Northwest 371 427 45,000  Level Indianapolis Center
Wed 03:32:08 PM 37.3019 -82.3772 321° Northwest 385 443 45,000  Level Indianapolis Center
Wed 03:33:10 PM 37.3864 -82.4656 320° Northwest 393 452 45,000 242 Level Indianapolis Center
Wed 03:34:12 PM 37.4725 -82.5528 321° Northwest 398 458 45,500 629 Climbing Indianapolis Center
Wed 03:35:14 PM 37.5703 -82.6536 321° Northwest 390 449 46,300 677 Climbing Indianapolis Center
Wed 03:36:16 PM 37.6511 -82.7389 320° Northwest 382 440 46,900 339 Climbing Indianapolis Center
Wed 03:37:18 PM 37.7322 -82.8231 321° Northwest 377 434 47,000 48 Climbing Indianapolis Center
Wed 03:38:20 PM 37.8139 -82.9089 320° Northwest 381 438 47,000  Level Indianapolis Center
Wed 03:39:22 PM 37.8950 -82.9950 320° Northwest 382 440 47,000  Level Indianapolis Center
Wed 03:40:24 PM 37.9928 -83.0967 321° Northwest 389 448 47,000  Level Indianapolis Center
Wed 03:41:26 PM 38.0756 -83.1856 320° Northwest 390 449 47,000  Level Indianapolis Center
Wed 03:42:28 PM 38.1589 -83.2742 320° Northwest 391 450 47,000  Level Indianapolis Center
Wed 03:43:30 PM 38.2417 -83.3622 320° Northwest 388 447 47,000  Level Indianapolis Center
Wed 03:44:32 PM 38.3258 -83.4508 320° Northwest 392 451 47,000  Level Indianapolis Center
Wed 03:45:34 PM 38.4225 -83.5536 320° Northwest 387 445 47,000  Level Indianapolis Center
Wed 03:46:36 PM 38.5061 -83.6456 319° Northwest 393 452 47,000  Level Indianapolis Center
Wed 03:47:38 PM 38.5900 -83.7328 321° Northwest 390 449 47,000  Level Indianapolis Center
Wed 03:48:40 PM 38.6736 -83.8247 319° Northwest 395 455 47,000  Level Indianapolis Center
Wed 03:49:42 PM 38.7583 -83.9169 320° Northwest 395 455 47,000  Level Indianapolis Center
Wed 03:50:45 PM 38.8436 -84.0081 320° Northwest 394 453 47,000  Level Indianapolis Center
Wed 03:51:47 PM 38.9283 -84.1022 319° Northwest 396 456 47,000  Level Indianapolis Center
Wed 03:52:49 PM 39.0269 -84.2097 320° Northwest 394 453 47,000  Level Indianapolis Center
Wed 03:53:51 PM 39.1097 -84.3022 319° Northwest 391 450 47,000  Level Indianapolis Center
Wed 03:54:53 PM 39.1944 -84.3953 320° Northwest 393 452 47,000  Level Indianapolis Center
Wed 03:55:55 PM 39.2786 -84.4883 319° Northwest 394 453 47,000  Level Indianapolis Center
Wed 03:56:57 PM 39.3619 -84.5814 319° Northwest 391 450 47,000  Level Indianapolis Center
Wed 03:57:59 PM 39.4469 -84.6739 320° Northwest 395 455 47,000  Level Indianapolis Center
Wed 03:59:01 PM 39.5294 -84.7669 319° Northwest 390 449 47,000  Level Indianapolis Center
Wed 04:00:03 PM 39.6150 -84.8617 320° Northwest 397 457 47,000  Level Indianapolis Center
Wed 04:01:05 PM 39.7042 -84.9622 319° Northwest 393 452 47,000  Level Indianapolis Center
Wed 04:02:07 PM 39.7889 -85.0569 319° Northwest 400 460 47,000  Level Indianapolis Center
Wed 04:03:09 PM 39.8858 -85.1672 319° Northwest 397 457 47,000  Level Indianapolis Center
Wed 04:04:11 PM 39.9703 -85.2636 319° Northwest 400 460 47,000  Level Indianapolis Center
Wed 04:05:13 PM 40.0528 -85.3586 319° Northwest 398 458 47,000  Level Indianapolis Center
Wed 04:06:15 PM 40.1369 -85.4542 319° Northwest 398 458 47,000  Level Indianapolis Center
Wed 04:06:34 PM 40.1656 -85.4850 321° Northwest 400 460 47,000  Level Chicago Center
Wed 04:07:36 PM 40.2500 -85.5819 319° Northwest 402 463 47,000  Level Chicago Center
Wed 04:08:38 PM 40.3344 -85.6797 319° Northwest 405 466 47,000  Level Chicago Center
Wed 04:09:40 PM 40.4194 -85.7775 319° Northwest 406 467 47,000  Level Chicago Center
Wed 04:10:42 PM 40.5192 -85.8942 318° Northwest 410 472 47,000  Level Chicago Center
Wed 04:11:44 PM 40.6056 -85.9936 319° Northwest 412 474 47,000  Level Chicago Center
Wed 04:12:46 PM 40.6906 -86.0947 318° Northwest 412 474 47,000  Level Chicago Center
Wed 04:13:48 PM 40.7750 -86.1947 318° Northwest 409 471 47,000  Level Chicago Center
Wed 04:14:50 PM 40.8611 -86.2967 318° Northwest 414 476 47,000 -97 Level Chicago Center
Wed 04:15:52 PM 40.9469 -86.3992 318° Northwest 414 476 46,800 -532 Descending Chicago Center
Wed 04:16:54 PM 41.0333 -86.5011 318° Northwest 417 480 45,900 -919 Descending Chicago Center
Wed 04:17:56 PM 41.1381 -86.6242 319° Northwest 418 481 44,900 -960 Descending Chicago Center
Wed 04:18:59 PM 41.2244 -86.7283 318° Northwest 418 481 43,900 -1,152 Descending Chicago Center
Wed 04:20:01 PM 41.3153 -86.8389 318° Northwest 422 486 42,500 -1,355 Descending Chicago Center
Wed 04:21:03 PM 41.4028 -86.9450 318° Northwest 429 494 41,100 -1,355 Descending Chicago Center
Wed 04:22:05 PM 41.4908 -87.0519 318° Northwest 433 498 39,700 -1,306 Descending Chicago Center
Wed 04:23:07 PM 41.5808 -87.1603 318° Northwest 439 505 38,400 -1,452 Descending Chicago Center
Wed 04:24:09 PM 41.6858 -87.2881 318° Northwest 433 498 36,700 -1,500 Descending Chicago Center
Wed 04:25:11 PM 41.7814 -87.3758 326° Northwest 428 493 35,300 -1,355 Descending Chicago Center
Wed 04:26:13 PM 41.8811 -87.4444 333° Northwest 412 474 33,900 -1,355 Descending Chicago Center
Wed 04:27:15 PM 41.9814 -87.5139 333° Northwest 409 471 32,500 -1,355 Descending Chicago Center
Wed 04:28:17 PM 42.0769 -87.5831 332° Northwest 399 459 31,100 -1,500 Descending Chicago Center
Wed 04:29:19 PM 42.1919 -87.6661 332° Northwest 395 455 29,400 -1,488 Descending Chicago Center
Wed 04:30:22 PM 42.2703 -87.7633 317° Northwest 392 451 28,000 -1,344 Descending Chicago Center
Wed 04:31:24 PM 42.3297 -87.8789 305° West 386 444 26,600 -1,742 Descending Chicago Center
Wed 04:32:26 PM 42.4064 -88.0136 308° West 387 445 24,400 -1,984 Descending Chicago Center
Wed 04:33:28 PM 42.4731 -88.1322 307° West 393 452 22,500 -1,887 Descending Chicago Center
Wed 04:34:30 PM 42.5381 -88.2472 308° West 384 442 20,500 -1,210 Descending Chicago Center
Wed 04:35:32 PM 42.5992 -88.3572 307° West 366 421 20,000 -242 Descending Chicago Center
Wed 04:36:34 PM 42.6567 -88.4606 307° West 346 398 20,000 -968 Level Chicago Center
Wed 04:37:36 PM 42.7119 -88.5608 307° West 334 384 18,000 -2,323 Descending Chicago Center
Wed 04:38:38 PM 42.7544 -88.6983 293° West 334 384 15,200 -2,516 Descending Chicago Center
Wed 04:39:40 PM 42.7906 -88.8097 294° West 323 372 12,800 -2,016 Descending Chicago Center
Wed 04:40:43 PM 42.8419 -88.9019 307° West 307 353 11,000 -1,536 Descending Chicago Center
Wed 04:41:45 PM 42.8961 -88.9894 310° West 299 344 9,600 -1,839 Descending Chicago Center
Wed 04:42:47 PM 42.9356 -89.0889 298° West 297 342 7,200 -2,226 Descending Chicago Center
Wed 04:43:49 PM 42.9753 -89.1814 300° West 287 330 5,000 -1,984 Descending Chicago Center
Wed 04:44:51 PM 43.0186 -89.2869 299° West 279 321 3,100 -1,452 Descending Chicago Center
Wed 04:45:53 PM 43.0692 -89.3472 319° Northwest 255 293 2,000 -968 Descending Chicago Center
Wed 04:46:55 PM 43.1128 -89.3442 North 185 213 1,100 -871 Descending Chicago Center

Login

Don't have an account? Register now (free) for customized features, flight alerts, and more!